Airfield :
LOGIN :

Register | Disclaimer

   EN    FR    IT 

 










Legend :    VFR   Marginal VFR   IFR   Intensive IFR   Very Intensive IFR
Visi :
Ceiling :
>= 8 km
>= 3000ft
5 to 8 km
1000 to 3000 ft
1500m to 5 km
500 to 1000 ft
800 to 1500m
200 to 500 ft
< 800m
< 200 ft
Symbols :   Thunderstorms  Fog  Heavy snow  Heavy precipitations  Wind > 20 kt
SIGMETs :     Misc.  Thunderstorms  Icing  Turbulence  Mountain Waves  Volcanic Ashes






- Airport Elevation : 628 ft
- IATA code : CMR


LFGA - Colmar-Houssen

CURRENT METAR :
  • 011200Z AUTO 25012KT 220V280 9999 BKN047 BKN054 08/M01 Q1027

EXPIRED METARs :
  • 011130Z AUTO 22012KT 190V260 9999 BKN046 BKN052 09/M00 Q1026
  • 011100Z AUTO 22010G21KT 170V250 9999 FEW034 BKN046 BKN052 07/01 Q1027
  • 011030Z AUTO 17006KT 130V220 9999 BKN035 BKN042 BKN048 06/03 Q1027
  • 011000Z AUTO 18011KT 9999 FEW032 SCT039 BKN046 05/03 Q1027
  • 010930Z AUTO 18008KT 150V210 9999 BKN034 OVC040 05/02 Q1027
  • 010900Z AUTO 17004KT 140V220 9999 -DZ BKN031 OVC040 05/02 Q1027

TAF N/A



MET'MAP, your aeronautical weather chart ! - Copyright ORBIFLY December 2007 - Disclaimer

ORBIFLY MET'MAP TEAM :

Programming & Development : Alexandra Zaïnal
Original concept : Baudouin d'Aumeries
Technical & hardware support : Manuel Goepfert
Assistance : Marc-Olivier Méhu




SOURCES & CREDITS :

   NOAA